sensor_id;sensor_type;location;lat;lon;timestamp;P1;durP1;ratioP1;P2;durP2;ratioP2
53203;SDS011;39086;54.424;18.456;2023-06-24T00:00:24;8.10;;;6.63;;
53203;SDS011;39086;54.424;18.456;2023-06-24T00:01:28;10.27;;;7.20;;
53203;SDS011;39086;54.424;18.456;2023-06-24T00:02:33;8.97;;;7.00;;
53203;SDS011;39086;54.424;18.456;2023-06-24T00:03:38;8.90;;;7.17;;
53203;SDS011;39086;54.424;18.456;2023-06-24T00:04:40;8.83;;;6.60;;
53203;SDS011;39086;54.424;18.456;2023-06-24T00:05:44;8.13;;;7.10;;
53203;SDS011;39086;54.424;18.456;2023-06-24T00:06:51;8.70;;;7.30;;
53203;SDS011;39086;54.424;18.456;2023-06-24T00:07:58;9.93;;;6.77;;
53203;SDS011;39086;54.424;18.456;2023-06-24T00:09:03;8.43;;;6.93;;
53203;SDS011;39086;54.424;18.456;2023-06-24T00:10:09;9.73;;;7.50;;
53203;SDS011;39086;54.424;18.456;2023-06-24T00:11:12;8.03;;;7.13;;
53203;SDS011;39086;54.424;18.456;2023-06-24T00:12:16;8.37;;;6.83;;
53203;SDS011;39086;54.424;18.456;2023-06-24T00:13:20;9.60;;;7.13;;
53203;SDS011;39086;54.424;18.456;2023-06-24T00:14:24;7.30;;;6.57;;
53203;SDS011;39086;54.424;18.456;2023-06-24T00:15:27;7.80;;;7.00;;
53203;SDS011;39086;54.424;18.456;2023-06-24T00:16:31;8.77;;;7.13;;
53203;SDS011;39086;54.424;18.456;2023-06-24T00:17:33;8.60;;;6.57;;
53203;SDS011;39086;54.424;18.456;2023-06-24T00:18:37;9.43;;;6.90;;
53203;SDS011;39086;54.424;18.456;2023-06-24T00:19:42;9.23;;;7.23;;
53203;SDS011;39086;54.424;18.456;2023-06-24T00:20:46;8.07;;;6.60;;
53203;SDS011;39086;54.424;18.456;2023-06-24T00:21:49;12.00;;;6.83;;
53203;SDS011;39086;54.424;18.456;2023-06-24T00:22:52;8.43;;;6.80;;
53203;SDS011;39086;54.424;18.456;2023-06-24T00:23:55;12.03;;;7.33;;
53203;SDS011;39086;54.424;18.456;2023-06-24T00:24:59;10.17;;;6.67;;
53203;SDS011;39086;54.424;18.456;2023-06-24T00:26:02;7.63;;;6.83;;
53203;SDS011;39086;54.424;18.456;2023-06-24T00:27:07;11.40;;;7.10;;
53203;SDS011;39086;54.424;18.456;2023-06-24T00:28:09;9.23;;;6.83;;
53203;SDS011;39086;54.424;18.456;2023-06-24T00:29:12;8.73;;;6.53;;
53203;SDS011;39086;54.424;18.456;2023-06-24T00:30:16;8.23;;;6.83;;
53203;SDS011;39086;54.424;18.456;2023-06-24T00:31:19;9.67;;;6.37;;
53203;SDS011;39086;54.424;18.456;2023-06-24T00:32:22;8.77;;;6.40;;
53203;SDS011;39086;54.424;18.456;2023-06-24T00:33:26;6.60;;;5.97;;
53203;SDS011;39086;54.424;18.456;2023-06-24T00:34:28;8.17;;;6.30;;
53203;SDS011;39086;54.424;18.456;2023-06-24T00:35:32;7.87;;;5.83;;
53203;SDS011;39086;54.424;18.456;2023-06-24T00:36:34;7.83;;;6.07;;
53203;SDS011;39086;54.424;18.456;2023-06-24T00:37:39;6.80;;;5.50;;
53203;SDS011;39086;54.424;18.456;2023-06-24T00:38:43;6.90;;;6.17;;
53203;SDS011;39086;54.424;18.456;2023-06-24T00:39:46;9.07;;;6.40;;
53203;SDS011;39086;54.424;18.456;2023-06-24T00:40:48;6.97;;;6.10;;
53203;SDS011;39086;54.424;18.456;2023-06-24T00:41:52;8.10;;;6.33;;
53203;SDS011;39086;54.424;18.456;2023-06-24T00:42:56;8.90;;;6.47;;
53203;SDS011;39086;54.424;18.456;2023-06-24T00:43:59;6.33;;;5.63;;
53203;SDS011;39086;54.424;18.456;2023-06-24T00:45:03;7.23;;;5.83;;
53203;SDS011;39086;54.424;18.456;2023-06-24T00:46:06;6.97;;;5.90;;
53203;SDS011;39086;54.424;18.456;2023-06-24T00:47:09;8.17;;;6.47;;
53203;SDS011;39086;54.424;18.456;2023-06-24T00:48:12;8.60;;;6.77;;
53203;SDS011;39086;54.424;18.456;2023-06-24T00:49:15;6.77;;;6.00;;
53203;SDS011;39086;54.424;18.456;2023-06-24T00:50:18;10.67;;;7.07;;
53203;SDS011;39086;54.424;18.456;2023-06-24T00:51:21;6.97;;;5.70;;
53203;SDS011;39086;54.424;18.456;2023-06-24T00:52:27;6.77;;;5.70;;
53203;SDS011;39086;54.424;18.456;2023-06-24T00:53:30;6.00;;;5.43;;
53203;SDS011;39086;54.424;18.456;2023-06-24T00:54:33;9.07;;;6.23;;
53203;SDS011;39086;54.424;18.456;2023-06-24T00:55:51;8.23;;;6.10;;
53203;SDS011;39086;54.424;18.456;2023-06-24T00:56:55;8.27;;;5.90;;
53203;SDS011;39086;54.424;18.456;2023-06-24T00:57:59;7.20;;;5.93;;
53203;SDS011;39086;54.424;18.456;2023-06-24T00:59:03;6.80;;;6.10;;
53203;SDS011;39086;54.424;18.456;2023-06-24T01:00:06;7.27;;;5.63;;
53203;SDS011;39086;54.424;18.456;2023-06-24T01:01:15;6.50;;;5.60;;
53203;SDS011;39086;54.424;18.456;2023-06-24T01:02:18;8.33;;;5.50;;
53203;SDS011;39086;54.424;18.456;2023-06-24T01:03:22;8.07;;;5.90;;
53203;SDS011;39086;54.424;18.456;2023-06-24T01:04:25;5.70;;;5.20;;
53203;SDS011;39086;54.424;18.456;2023-06-24T01:05:28;7.60;;;5.40;;
53203;SDS011;39086;54.424;18.456;2023-06-24T01:06:31;6.30;;;5.70;;
53203;SDS011;39086;54.424;18.456;2023-06-24T01:07:34;7.13;;;5.37;;
53203;SDS011;39086;54.424;18.456;2023-06-24T01:08:37;6.43;;;5.37;;
53203;SDS011;39086;54.424;18.456;2023-06-24T01:09:40;6.13;;;5.53;;
53203;SDS011;39086;54.424;18.456;2023-06-24T01:10:43;6.57;;;5.83;;
53203;SDS011;39086;54.424;18.456;2023-06-24T01:11:46;7.90;;;5.30;;
53203;SDS011;39086;54.424;18.456;2023-06-24T01:12:50;6.50;;;5.70;;
53203;SDS011;39086;54.424;18.456;2023-06-24T01:13:54;7.97;;;5.50;;
53203;SDS011;39086;54.424;18.456;2023-06-24T01:14:57;6.37;;;5.77;;
53203;SDS011;39086;54.424;18.456;2023-06-24T01:16:02;6.83;;;5.77;;
53203;SDS011;39086;54.424;18.456;2023-06-24T01:17:08;6.63;;;5.60;;
53203;SDS011;39086;54.424;18.456;2023-06-24T01:18:16;6.07;;;5.47;;
53203;SDS011;39086;54.424;18.456;2023-06-24T01:19:26;7.83;;;5.53;;
53203;SDS011;39086;54.424;18.456;2023-06-24T01:20:33;6.20;;;5.13;;
53203;SDS011;39086;54.424;18.456;2023-06-24T01:21:41;6.00;;;5.30;;
53203;SDS011;39086;54.424;18.456;2023-06-24T01:23:06;6.27;;;5.70;;
53203;SDS011;39086;54.424;18.456;2023-06-24T01:25:33;7.00;;;5.13;;
53203;SDS011;39086;54.424;18.456;2023-06-24T01:28:07;6.57;;;4.87;;
53203;SDS011;39086;54.424;18.456;2023-06-24T01:33:52;5.60;;;5.03;;
53203;SDS011;39086;54.424;18.456;2023-06-24T01:35:02;7.33;;;5.50;;
53203;SDS011;39086;54.424;18.456;2023-06-24T01:36:08;6.70;;;5.90;;
53203;SDS011;39086;54.424;18.456;2023-06-24T01:37:15;5.73;;;4.80;;
53203;SDS011;39086;54.424;18.456;2023-06-24T01:38:21;5.20;;;4.70;;
53203;SDS011;39086;54.424;18.456;2023-06-24T01:39:25;6.80;;;5.10;;
53203;SDS011;39086;54.424;18.456;2023-06-24T01:40:31;6.07;;;5.10;;
53203;SDS011;39086;54.424;18.456;2023-06-24T01:41:36;7.23;;;4.73;;
53203;SDS011;39086;54.424;18.456;2023-06-24T01:42:42;5.87;;;4.63;;
53203;SDS011;39086;54.424;18.456;2023-06-24T01:43:46;7.53;;;4.73;;
53203;SDS011;39086;54.424;18.456;2023-06-24T01:44:49;5.63;;;4.90;;
53203;SDS011;39086;54.424;18.456;2023-06-24T01:45:53;5.20;;;4.57;;
53203;SDS011;39086;54.424;18.456;2023-06-24T01:46:57;5.33;;;4.20;;
53203;SDS011;39086;54.424;18.456;2023-06-24T01:48:02;5.27;;;4.77;;
53203;SDS011;39086;54.424;18.456;2023-06-24T01:49:09;5.60;;;5.00;;
53203;SDS011;39086;54.424;18.456;2023-06-24T01:50:16;5.97;;;4.87;;
53203;SDS011;39086;54.424;18.456;2023-06-24T01:55:04;6.33;;;4.27;;
53203;SDS011;39086;54.424;18.456;2023-06-24T01:56:11;4.97;;;4.50;;
53203;SDS011;39086;54.424;18.456;2023-06-24T01:57:14;6.03;;;4.80;;
53203;SDS011;39086;54.424;18.456;2023-06-24T01:58:18;4.97;;;4.57;;
53203;SDS011;39086;54.424;18.456;2023-06-24T01:59:21;5.10;;;4.47;;
53203;SDS011;39086;54.424;18.456;2023-06-24T02:00:25;6.90;;;4.80;;
53203;SDS011;39086;54.424;18.456;2023-06-24T02:01:28;6.00;;;4.63;;
53203;SDS011;39086;54.424;18.456;2023-06-24T02:02:32;4.90;;;4.43;;
53203;SDS011;39086;54.424;18.456;2023-06-24T02:03:36;6.90;;;4.43;;
53203;SDS011;39086;54.424;18.456;2023-06-24T02:04:41;5.07;;;4.00;;
53203;SDS011;39086;54.424;18.456;2023-06-24T02:05:44;5.10;;;4.60;;
53203;SDS011;39086;54.424;18.456;2023-06-24T02:06:49;4.67;;;4.23;;
53203;SDS011;39086;54.424;18.456;2023-06-24T02:07:52;4.57;;;4.13;;
53203;SDS011;39086;54.424;18.456;2023-06-24T02:08:56;4.47;;;4.07;;
53203;SDS011;39086;54.424;18.456;2023-06-24T02:10:00;4.20;;;3.83;;
53203;SDS011;39086;54.424;18.456;2023-06-24T02:11:04;6.83;;;4.40;;
53203;SDS011;39086;54.424;18.456;2023-06-24T02:12:08;4.80;;;3.97;;
53203;SDS011;39086;54.424;18.456;2023-06-24T02:13:12;4.77;;;3.60;;
53203;SDS011;39086;54.424;18.456;2023-06-24T02:14:14;4.83;;;3.53;;
53203;SDS011;39086;54.424;18.456;2023-06-24T02:15:19;6.10;;;4.07;;
53203;SDS011;39086;54.424;18.456;2023-06-24T02:16:22;4.10;;;3.70;;
53203;SDS011;39086;54.424;18.456;2023-06-24T02:17:26;5.33;;;4.00;;
53203;SDS011;39086;54.424;18.456;2023-06-24T02:18:31;5.00;;;4.30;;
53203;SDS011;39086;54.424;18.456;2023-06-24T02:19:34;6.40;;;4.00;;
53203;SDS011;39086;54.424;18.456;2023-06-24T02:20:38;4.77;;;4.20;;
53203;SDS011;39086;54.424;18.456;2023-06-24T02:21:43;4.33;;;3.80;;
53203;SDS011;39086;54.424;18.456;2023-06-24T02:22:45;3.53;;;3.30;;
53203;SDS011;39086;54.424;18.456;2023-06-24T02:23:49;5.23;;;4.10;;
53203;SDS011;39086;54.424;18.456;2023-06-24T02:24:52;5.37;;;3.63;;
53203;SDS011;39086;54.424;18.456;2023-06-24T02:25:57;5.07;;;4.10;;
53203;SDS011;39086;54.424;18.456;2023-06-24T02:26:59;4.13;;;3.70;;
53203;SDS011;39086;54.424;18.456;2023-06-24T02:28:03;5.20;;;4.00;;
53203;SDS011;39086;54.424;18.456;2023-06-24T02:29:06;4.47;;;3.47;;
53203;SDS011;39086;54.424;18.456;2023-06-24T02:30:11;6.73;;;4.03;;
53203;SDS011;39086;54.424;18.456;2023-06-24T02:31:15;4.93;;;3.50;;
53203;SDS011;39086;54.424;18.456;2023-06-24T02:32:19;4.40;;;4.00;;
53203;SDS011;39086;54.424;18.456;2023-06-24T02:33:21;3.90;;;3.50;;
53203;SDS011;39086;54.424;18.456;2023-06-24T02:34:25;4.77;;;4.07;;
53203;SDS011;39086;54.424;18.456;2023-06-24T02:35:27;6.77;;;3.97;;
53203;SDS011;39086;54.424;18.456;2023-06-24T02:36:32;3.83;;;3.53;;
53203;SDS011;39086;54.424;18.456;2023-06-24T02:37:34;4.60;;;3.70;;
53203;SDS011;39086;54.424;18.456;2023-06-24T02:38:37;4.37;;;3.93;;
53203;SDS011;39086;54.424;18.456;2023-06-24T02:39:40;4.87;;;3.63;;
53203;SDS011;39086;54.424;18.456;2023-06-24T02:40:45;4.17;;;3.87;;
53203;SDS011;39086;54.424;18.456;2023-06-24T02:41:48;3.70;;;3.40;;
53203;SDS011;39086;54.424;18.456;2023-06-24T02:42:51;5.43;;;4.10;;
53203;SDS011;39086;54.424;18.456;2023-06-24T02:43:54;4.13;;;3.67;;
53203;SDS011;39086;54.424;18.456;2023-06-24T02:44:57;4.50;;;4.10;;
53203;SDS011;39086;54.424;18.456;2023-06-24T02:46:00;4.03;;;3.73;;
53203;SDS011;39086;54.424;18.456;2023-06-24T02:47:04;5.10;;;4.10;;
53203;SDS011;39086;54.424;18.456;2023-06-24T02:48:07;5.80;;;4.37;;
53203;SDS011;39086;54.424;18.456;2023-06-24T02:49:12;4.90;;;3.80;;
53203;SDS011;39086;54.424;18.456;2023-06-24T02:50:15;4.30;;;3.90;;
53203;SDS011;39086;54.424;18.456;2023-06-24T02:51:19;5.53;;;4.10;;
53203;SDS011;39086;54.424;18.456;2023-06-24T02:52:23;6.07;;;3.90;;
53203;SDS011;39086;54.424;18.456;2023-06-24T02:53:30;4.17;;;3.73;;
53203;SDS011;39086;54.424;18.456;2023-06-24T02:54:32;3.80;;;3.50;;
53203;SDS011;39086;54.424;18.456;2023-06-24T02:55:36;3.90;;;3.60;;
53203;SDS011;39086;54.424;18.456;2023-06-24T02:56:39;4.13;;;3.80;;
53203;SDS011;39086;54.424;18.456;2023-06-24T02:57:45;4.60;;;3.90;;
53203;SDS011;39086;54.424;18.456;2023-06-24T02:58:48;4.40;;;3.83;;
53203;SDS011;39086;54.424;18.456;2023-06-24T02:59:53;4.27;;;3.87;;
53203;SDS011;39086;54.424;18.456;2023-06-24T03:00:56;7.57;;;4.23;;
53203;SDS011;39086;54.424;18.456;2023-06-24T03:02:00;4.07;;;3.70;;
53203;SDS011;39086;54.424;18.456;2023-06-24T03:03:03;5.80;;;3.87;;
53203;SDS011;39086;54.424;18.456;2023-06-24T03:04:07;4.47;;;3.80;;
53203;SDS011;39086;54.424;18.456;2023-06-24T03:05:10;4.80;;;3.67;;
53203;SDS011;39086;54.424;18.456;2023-06-24T03:06:13;4.57;;;4.03;;
53203;SDS011;39086;54.424;18.456;2023-06-24T03:07:19;3.80;;;3.50;;
53203;SDS011;39086;54.424;18.456;2023-06-24T03:08:25;4.03;;;3.73;;
53203;SDS011;39086;54.424;18.456;2023-06-24T03:09:27;3.87;;;3.57;;
53203;SDS011;39086;54.424;18.456;2023-06-24T03:10:30;4.73;;;3.73;;
53203;SDS011;39086;54.424;18.456;2023-06-24T03:11:39;4.30;;;3.90;;
53203;SDS011;39086;54.424;18.456;2023-06-24T03:12:43;4.50;;;4.10;;
53203;SDS011;39086;54.424;18.456;2023-06-24T03:13:45;5.03;;;3.40;;
53203;SDS011;39086;54.424;18.456;2023-06-24T03:14:49;4.67;;;3.73;;
53203;SDS011;39086;54.424;18.456;2023-06-24T03:15:51;4.00;;;3.60;;
53203;SDS011;39086;54.424;18.456;2023-06-24T03:16:54;4.93;;;4.43;;
53203;SDS011;39086;54.424;18.456;2023-06-24T03:17:57;4.93;;;3.80;;
53203;SDS011;39086;54.424;18.456;2023-06-24T03:19:00;4.33;;;3.57;;
53203;SDS011;39086;54.424;18.456;2023-06-24T03:20:04;3.73;;;3.43;;
53203;SDS011;39086;54.424;18.456;2023-06-24T03:21:09;4.40;;;3.70;;
53203;SDS011;39086;54.424;18.456;2023-06-24T03:22:11;4.30;;;3.90;;
53203;SDS011;39086;54.424;18.456;2023-06-24T03:23:15;4.03;;;3.63;;
53203;SDS011;39086;54.424;18.456;2023-06-24T03:24:18;5.33;;;4.37;;
53203;SDS011;39086;54.424;18.456;2023-06-24T03:25:22;4.50;;;3.70;;
53203;SDS011;39086;54.424;18.456;2023-06-24T03:26:24;4.53;;;3.83;;
53203;SDS011;39086;54.424;18.456;2023-06-24T03:27:27;4.53;;;4.07;;
53203;SDS011;39086;54.424;18.456;2023-06-24T03:28:30;6.43;;;3.87;;
53203;SDS011;39086;54.424;18.456;2023-06-24T03:29:33;5.70;;;3.90;;
53203;SDS011;39086;54.424;18.456;2023-06-24T03:30:37;4.43;;;3.97;;
53203;SDS011;39086;54.424;18.456;2023-06-24T03:31:39;3.67;;;3.37;;
53203;SDS011;39086;54.424;18.456;2023-06-24T03:32:45;4.60;;;3.97;;
53203;SDS011;39086;54.424;18.456;2023-06-24T03:33:48;4.63;;;3.67;;
53203;SDS011;39086;54.424;18.456;2023-06-24T03:34:52;4.10;;;3.80;;
53203;SDS011;39086;54.424;18.456;2023-06-24T03:35:54;4.43;;;3.53;;
53203;SDS011;39086;54.424;18.456;2023-06-24T03:36:57;5.23;;;3.87;;
53203;SDS011;39086;54.424;18.456;2023-06-24T03:38:01;4.23;;;3.83;;
53203;SDS011;39086;54.424;18.456;2023-06-24T03:39:03;4.30;;;3.90;;
53203;SDS011;39086;54.424;18.456;2023-06-24T03:40:09;6.77;;;3.77;;
53203;SDS011;39086;54.424;18.456;2023-06-24T03:41:12;4.17;;;3.57;;
53203;SDS011;39086;54.424;18.456;2023-06-24T03:42:15;5.67;;;4.13;;
53203;SDS011;39086;54.424;18.456;2023-06-24T03:43:18;4.00;;;3.63;;
53203;SDS011;39086;54.424;18.456;2023-06-24T03:44:21;5.03;;;3.90;;
53203;SDS011;39086;54.424;18.456;2023-06-24T03:45:23;5.47;;;4.03;;
53203;SDS011;39086;54.424;18.456;2023-06-24T03:46:27;5.30;;;3.67;;
53203;SDS011;39086;54.424;18.456;2023-06-24T03:47:34;6.63;;;3.80;;
53203;SDS011;39086;54.424;18.456;2023-06-24T03:48:39;6.23;;;4.03;;
53203;SDS011;39086;54.424;18.456;2023-06-24T03:49:41;5.07;;;4.20;;
53203;SDS011;39086;54.424;18.456;2023-06-24T03:50:45;4.27;;;3.67;;
53203;SDS011;39086;54.424;18.456;2023-06-24T03:51:47;5.47;;;3.73;;
53203;SDS011;39086;54.424;18.456;2023-06-24T03:52:51;5.97;;;3.93;;
53203;SDS011;39086;54.424;18.456;2023-06-24T03:53:53;4.00;;;3.70;;
53203;SDS011;39086;54.424;18.456;2023-06-24T03:54:56;5.23;;;3.80;;
53203;SDS011;39086;54.424;18.456;2023-06-24T03:56:00;5.60;;;3.67;;
53203;SDS011;39086;54.424;18.456;2023-06-24T03:57:04;4.33;;;3.93;;
53203;SDS011;39086;54.424;18.456;2023-06-24T03:58:07;4.57;;;3.80;;
53203;SDS011;39086;54.424;18.456;2023-06-24T03:59:10;5.03;;;3.67;;
53203;SDS011;39086;54.424;18.456;2023-06-24T04:00:14;7.63;;;4.03;;
53203;SDS011;39086;54.424;18.456;2023-06-24T04:01:18;5.17;;;3.90;;
53203;SDS011;39086;54.424;18.456;2023-06-24T04:02:21;4.57;;;4.17;;
53203;SDS011;39086;54.424;18.456;2023-06-24T04:03:24;6.20;;;4.27;;
53203;SDS011;39086;54.424;18.456;2023-06-24T04:04:27;6.37;;;3.57;;
53203;SDS011;39086;54.424;18.456;2023-06-24T04:05:30;4.40;;;4.00;;
53203;SDS011;39086;54.424;18.456;2023-06-24T04:06:33;6.67;;;4.40;;
53203;SDS011;39086;54.424;18.456;2023-06-24T04:07:36;8.80;;;3.93;;
53203;SDS011;39086;54.424;18.456;2023-06-24T04:08:40;4.80;;;4.30;;
53203;SDS011;39086;54.424;18.456;2023-06-24T04:09:45;4.93;;;4.37;;
53203;SDS011;39086;54.424;18.456;2023-06-24T04:10:47;4.83;;;3.80;;
53203;SDS011;39086;54.424;18.456;2023-06-24T04:11:52;6.67;;;4.03;;
53203;SDS011;39086;54.424;18.456;2023-06-24T04:12:54;5.00;;;4.13;;
53203;SDS011;39086;54.424;18.456;2023-06-24T04:13:58;4.53;;;3.83;;
53203;SDS011;39086;54.424;18.456;2023-06-24T04:15:01;5.43;;;4.20;;
53203;SDS011;39086;54.424;18.456;2023-06-24T04:16:04;7.57;;;3.83;;
53203;SDS011;39086;54.424;18.456;2023-06-24T04:17:07;6.40;;;4.30;;
53203;SDS011;39086;54.424;18.456;2023-06-24T04:18:10;5.17;;;4.13;;
53203;SDS011;39086;54.424;18.456;2023-06-24T04:19:13;5.00;;;4.40;;
53203;SDS011;39086;54.424;18.456;2023-06-24T04:20:16;7.37;;;4.30;;
53203;SDS011;39086;54.424;18.456;2023-06-24T04:21:19;4.60;;;3.90;;
53203;SDS011;39086;54.424;18.456;2023-06-24T04:22:21;6.37;;;3.97;;
53203;SDS011;39086;54.424;18.456;2023-06-24T04:23:25;4.20;;;3.80;;
53203;SDS011;39086;54.424;18.456;2023-06-24T04:24:27;4.30;;;3.97;;
53203;SDS011;39086;54.424;18.456;2023-06-24T04:25:30;5.63;;;3.57;;
53203;SDS011;39086;54.424;18.456;2023-06-24T04:26:33;4.37;;;3.97;;
53203;SDS011;39086;54.424;18.456;2023-06-24T04:27:38;5.17;;;3.50;;
53203;SDS011;39086;54.424;18.456;2023-06-24T04:28:41;4.23;;;3.77;;
53203;SDS011;39086;54.424;18.456;2023-06-24T04:29:44;5.20;;;3.90;;
53203;SDS011;39086;54.424;18.456;2023-06-24T04:30:46;4.47;;;4.07;;
53203;SDS011;39086;54.424;18.456;2023-06-24T04:31:50;6.57;;;4.23;;
53203;SDS011;39086;54.424;18.456;2023-06-24T04:32:52;4.20;;;3.73;;
53203;SDS011;39086;54.424;18.456;2023-06-24T04:33:56;3.80;;;3.43;;
53203;SDS011;39086;54.424;18.456;2023-06-24T04:34:58;3.63;;;3.33;;
53203;SDS011;39086;54.424;18.456;2023-06-24T04:36:02;4.13;;;3.73;;
53203;SDS011;39086;54.424;18.456;2023-06-24T04:37:05;4.57;;;3.40;;
53203;SDS011;39086;54.424;18.456;2023-06-24T04:38:08;4.23;;;3.70;;
53203;SDS011;39086;54.424;18.456;2023-06-24T04:39:10;5.03;;;3.83;;
53203;SDS011;39086;54.424;18.456;2023-06-24T04:40:14;4.83;;;3.70;;
53203;SDS011;39086;54.424;18.456;2023-06-24T04:41:16;4.07;;;3.77;;
53203;SDS011;39086;54.424;18.456;2023-06-24T04:42:21;3.83;;;3.53;;
53203;SDS011;39086;54.424;18.456;2023-06-24T04:43:26;4.30;;;3.60;;
53203;SDS011;39086;54.424;18.456;2023-06-24T04:44:30;4.43;;;3.33;;
53203;SDS011;39086;54.424;18.456;2023-06-24T04:45:32;4.00;;;3.60;;
53203;SDS011;39086;54.424;18.456;2023-06-24T04:46:36;3.30;;;3.00;;
53203;SDS011;39086;54.424;18.456;2023-06-24T04:47:41;3.60;;;3.30;;
53203;SDS011;39086;54.424;18.456;2023-06-24T04:48:44;3.73;;;3.43;;
53203;SDS011;39086;54.424;18.456;2023-06-24T04:49:47;4.73;;;4.10;;
53203;SDS011;39086;54.424;18.456;2023-06-24T04:50:50;3.57;;;3.10;;
53203;SDS011;39086;54.424;18.456;2023-06-24T04:51:54;4.13;;;3.23;;
53203;SDS011;39086;54.424;18.456;2023-06-24T04:52:58;3.83;;;3.53;;
53203;SDS011;39086;54.424;18.456;2023-06-24T04:54:03;5.37;;;3.70;;
53203;SDS011;39086;54.424;18.456;2023-06-24T04:55:07;4.73;;;3.27;;
53203;SDS011;39086;54.424;18.456;2023-06-24T04:56:10;3.90;;;3.53;;
53203;SDS011;39086;54.424;18.456;2023-06-24T04:57:22;4.40;;;3.60;;
53203;SDS011;39086;54.424;18.456;2023-06-24T04:58:26;4.20;;;3.90;;
53203;SDS011;39086;54.424;18.456;2023-06-24T04:59:29;5.27;;;3.50;;
53203;SDS011;39086;54.424;18.456;2023-06-24T05:00:32;3.70;;;3.40;;
53203;SDS011;39086;54.424;18.456;2023-06-24T05:01:35;3.50;;;3.20;;
53203;SDS011;39086;54.424;18.456;2023-06-24T05:02:38;4.00;;;3.60;;
53203;SDS011;39086;54.424;18.456;2023-06-24T05:03:41;3.83;;;3.50;;
53203;SDS011;39086;54.424;18.456;2023-06-24T05:04:43;6.07;;;3.43;;
53203;SDS011;39086;54.424;18.456;2023-06-24T05:05:47;3.93;;;3.40;;
53203;SDS011;39086;54.424;18.456;2023-06-24T05:06:49;4.13;;;3.80;;
53203;SDS011;39086;54.424;18.456;2023-06-24T05:07:53;4.07;;;3.60;;
53203;SDS011;39086;54.424;18.456;2023-06-24T05:08:55;3.90;;;3.60;;
53203;SDS011;39086;54.424;18.456;2023-06-24T05:09:59;4.83;;;3.40;;
53203;SDS011;39086;54.424;18.456;2023-06-24T05:11:01;5.53;;;4.23;;
53203;SDS011;39086;54.424;18.456;2023-06-24T05:12:05;4.00;;;3.47;;
53203;SDS011;39086;54.424;18.456;2023-06-24T05:13:08;4.97;;;3.87;;
53203;SDS011;39086;54.424;18.456;2023-06-24T05:14:12;7.00;;;3.57;;
53203;SDS011;39086;54.424;18.456;2023-06-24T05:15:15;4.17;;;3.70;;
53203;SDS011;39086;54.424;18.456;2023-06-24T05:16:18;4.90;;;3.63;;
53203;SDS011;39086;54.424;18.456;2023-06-24T05:17:20;4.77;;;3.67;;
53203;SDS011;39086;54.424;18.456;2023-06-24T05:18:24;4.03;;;3.00;;
53203;SDS011;39086;54.424;18.456;2023-06-24T05:19:26;4.17;;;3.40;;
53203;SDS011;39086;54.424;18.456;2023-06-24T05:20:30;4.53;;;3.70;;
53203;SDS011;39086;54.424;18.456;2023-06-24T05:21:32;3.70;;;3.40;;
53203;SDS011;39086;54.424;18.456;2023-06-24T05:22:35;4.33;;;3.50;;
53203;SDS011;39086;54.424;18.456;2023-06-24T05:23:39;4.43;;;3.83;;
53203;SDS011;39086;54.424;18.456;2023-06-24T05:24:41;5.10;;;3.50;;
53203;SDS011;39086;54.424;18.456;2023-06-24T05:25:45;3.53;;;3.23;;
53203;SDS011;39086;54.424;18.456;2023-06-24T05:26:48;3.80;;;3.50;;
53203;SDS011;39086;54.424;18.456;2023-06-24T05:27:51;3.93;;;3.43;;
53203;SDS011;39086;54.424;18.456;2023-06-24T05:28:54;6.23;;;3.80;;
53203;SDS011;39086;54.424;18.456;2023-06-24T05:29:58;4.10;;;3.70;;
53203;SDS011;39086;54.424;18.456;2023-06-24T05:31:01;4.90;;;3.30;;
53203;SDS011;39086;54.424;18.456;2023-06-24T05:32:04;3.93;;;3.40;;
53203;SDS011;39086;54.424;18.456;2023-06-24T05:33:07;5.13;;;3.53;;
53203;SDS011;39086;54.424;18.456;2023-06-24T05:34:11;6.13;;;3.37;;
53203;SDS011;39086;54.424;18.456;2023-06-24T05:35:13;3.80;;;3.50;;
53203;SDS011;39086;54.424;18.456;2023-06-24T05:36:16;6.20;;;3.57;;
53203;SDS011;39086;54.424;18.456;2023-06-24T05:37:19;6.13;;;3.83;;
53203;SDS011;39086;54.424;18.456;2023-06-24T05:38:22;5.63;;;3.53;;
53203;SDS011;39086;54.424;18.456;2023-06-24T05:39:25;5.93;;;3.50;;
53203;SDS011;39086;54.424;18.456;2023-06-24T05:40:28;4.40;;;3.83;;
53203;SDS011;39086;54.424;18.456;2023-06-24T05:41:30;4.27;;;3.83;;
53203;SDS011;39086;54.424;18.456;2023-06-24T05:42:34;5.27;;;3.47;;
53203;SDS011;39086;54.424;18.456;2023-06-24T05:43:37;7.27;;;3.57;;
53203;SDS011;39086;54.424;18.456;2023-06-24T05:44:42;3.70;;;3.40;;
53203;SDS011;39086;54.424;18.456;2023-06-24T05:45:47;4.07;;;3.70;;
53203;SDS011;39086;54.424;18.456;2023-06-24T05:46:49;5.13;;;3.53;;
53203;SDS011;39086;54.424;18.456;2023-06-24T05:47:53;5.83;;;3.70;;
53203;SDS011;39086;54.424;18.456;2023-06-24T05:48:55;4.37;;;3.53;;
53203;SDS011;39086;54.424;18.456;2023-06-24T05:49:59;4.03;;;3.43;;
53203;SDS011;39086;54.424;18.456;2023-06-24T05:51:01;3.97;;;3.57;;
53203;SDS011;39086;54.424;18.456;2023-06-24T05:52:05;4.20;;;3.53;;
53203;SDS011;39086;54.424;18.456;2023-06-24T05:53:07;4.17;;;3.60;;
53203;SDS011;39086;54.424;18.456;2023-06-24T05:54:13;6.23;;;3.80;;
53203;SDS011;39086;54.424;18.456;2023-06-24T05:55:15;4.83;;;3.70;;
53203;SDS011;39086;54.424;18.456;2023-06-24T05:56:20;4.10;;;3.70;;
53203;SDS011;39086;54.424;18.456;2023-06-24T05:57:22;4.03;;;3.63;;
53203;SDS011;39086;54.424;18.456;2023-06-24T05:58:26;4.17;;;3.70;;
53203;SDS011;39086;54.424;18.456;2023-06-24T05:59:28;5.17;;;3.33;;
53203;SDS011;39086;54.424;18.456;2023-06-24T06:00:31;5.10;;;3.50;;
53203;SDS011;39086;54.424;18.456;2023-06-24T06:01:35;4.33;;;3.80;;
53203;SDS011;39086;54.424;18.456;2023-06-24T06:02:38;7.90;;;3.90;;
53203;SDS011;39086;54.424;18.456;2023-06-24T06:03:41;3.97;;;3.30;;
53203;SDS011;39086;54.424;18.456;2023-06-24T06:04:44;4.47;;;3.50;;
53203;SDS011;39086;54.424;18.456;2023-06-24T06:05:47;5.77;;;3.67;;
53203;SDS011;39086;54.424;18.456;2023-06-24T06:06:51;5.20;;;4.53;;
53203;SDS011;39086;54.424;18.456;2023-06-24T06:07:53;3.80;;;3.50;;
53203;SDS011;39086;54.424;18.456;2023-06-24T06:08:56;4.03;;;3.67;;
53203;SDS011;39086;54.424;18.456;2023-06-24T06:09:59;3.93;;;3.63;;
53203;SDS011;39086;54.424;18.456;2023-06-24T06:11:02;4.17;;;3.87;;
53203;SDS011;39086;54.424;18.456;2023-06-24T06:12:05;4.87;;;3.60;;
53203;SDS011;39086;54.424;18.456;2023-06-24T06:13:09;3.93;;;3.60;;
53203;SDS011;39086;54.424;18.456;2023-06-24T06:14:11;4.73;;;3.60;;
53203;SDS011;39086;54.424;18.456;2023-06-24T06:15:15;4.10;;;3.60;;
53203;SDS011;39086;54.424;18.456;2023-06-24T06:16:17;4.20;;;3.80;;
53203;SDS011;39086;54.424;18.456;2023-06-24T06:17:22;3.77;;;3.07;;
53203;SDS011;39086;54.424;18.456;2023-06-24T06:18:24;5.73;;;3.73;;
53203;SDS011;39086;54.424;18.456;2023-06-24T06:19:28;4.60;;;4.13;;
53203;SDS011;39086;54.424;18.456;2023-06-24T06:20:30;3.60;;;3.30;;
53203;SDS011;39086;54.424;18.456;2023-06-24T06:21:35;3.40;;;3.10;;
53203;SDS011;39086;54.424;18.456;2023-06-24T06:22:38;5.63;;;3.57;;
53203;SDS011;39086;54.424;18.456;2023-06-24T06:23:41;3.83;;;3.47;;
53203;SDS011;39086;54.424;18.456;2023-06-24T06:24:44;4.43;;;3.90;;
53203;SDS011;39086;54.424;18.456;2023-06-24T06:25:47;4.27;;;3.57;;
53203;SDS011;39086;54.424;18.456;2023-06-24T06:26:50;4.40;;;4.00;;
53203;SDS011;39086;54.424;18.456;2023-06-24T06:27:53;7.57;;;4.70;;
53203;SDS011;39086;54.424;18.456;2023-06-24T06:28:55;5.53;;;3.97;;